Time;durP1;ratioP1;P1;durP2;ratioP2;P2;SDS_P1;SDS_P2;PMS_P1;PMS_P2;Temp;Humidity;BMP_temperature;BMP_pressure;BME280_temperature;BME280_humidity;BME280_pressure;Samples;Min_cycle;Max_cycle;Signal;HPM_P1;HPM_P2
2023/05/17 00:00:05;;;;;;;4.35;3.00;;;8.30;99.90;;;;;;2100714;28;20126;-83
2023/05/17 00:01:06;;;;;;;5.50;3.10;;;8.30;99.90;;;;;;2100073;28;20578;-84
2023/05/17 00:02:06;;;;;;;5.18;3.05;;;8.30;99.90;;;;;;2098926;28;20020;-84
2023/05/17 00:03:07;;;;;;;5.57;2.90;;;8.30;99.90;;;;;;2108164;28;20020;-85
2023/05/17 00:04:08;;;;;;;8.13;3.00;;;8.30;99.90;;;;;;2104200;28;20030;-84
2023/05/17 00:05:10;;;;;;;5.65;2.80;;;8.20;99.90;;;;;;2108053;28;20034;-83
2023/05/17 00:06:10;;;;;;;5.43;2.70;;;8.20;99.90;;;;;;2100774;28;20163;-84
2023/05/17 00:07:11;;;;;;;5.93;3.00;;;8.20;99.90;;;;;;2096254;28;20039;-84
2023/05/17 00:08:12;;;;;;;5.05;2.70;;;8.20;99.90;;;;;;2104488;28;20043;-84
2023/05/17 00:09:12;;;;;;;7.60;2.88;;;8.20;99.90;;;;;;2094460;28;20130;-82
2023/05/17 00:10:13;;;;;;;6.93;2.92;;;8.20;99.90;;;;;;2100841;28;20020;-84
2023/05/17 00:11:13;;;;;;;5.32;2.90;;;8.20;99.90;;;;;;2103020;28;20027;-83
2023/05/17 00:12:14;;;;;;;5.63;2.90;;;8.10;99.90;;;;;;2085943;28;20428;-83
2023/05/17 00:13:14;;;;;;;7.72;2.80;;;8.20;99.90;;;;;;2092800;28;20190;-82
2023/05/17 00:14:15;;;;;;;4.68;2.90;;;8.20;99.90;;;;;;2107448;28;20027;-83
2023/05/17 00:15:16;;;;;;;6.85;3.00;;;8.10;99.90;;;;;;2098706;28;20032;-82
2023/05/17 00:16:16;;;;;;;5.20;2.63;;;8.10;99.90;;;;;;2098733;28;20474;-84
2023/05/17 00:17:17;;;;;;;6.25;3.00;;;8.10;99.90;;;;;;2109842;28;20138;-84
2023/05/17 00:18:17;;;;;;;5.63;2.70;;;8.10;99.90;;;;;;2107905;28;20028;-84
2023/05/17 00:19:18;;;;;;;5.60;2.92;;;8.10;99.90;;;;;;2108481;28;20097;-82
2023/05/17 00:20:18;;;;;;;7.78;3.13;;;8.10;99.90;;;;;;2103452;28;20074;-83
2023/05/17 00:21:19;;;;;;;5.70;2.83;;;8.10;99.90;;;;;;2095036;28;20028;-83
2023/05/17 00:22:19;;;;;;;5.75;3.05;;;8.10;99.90;;;;;;2090849;28;20499;-83
2023/05/17 00:23:20;;;;;;;4.43;2.65;;;8.10;99.90;;;;;;2087948;28;20036;-82
2023/05/17 00:24:21;;;;;;;6.40;3.00;;;8.10;99.90;;;;;;2097908;28;20388;-83
2023/05/17 00:25:21;;;;;;;8.48;3.10;;;8.00;99.90;;;;;;2107415;28;20564;-83
2023/05/17 00:26:22;;;;;;;5.22;2.83;;;8.10;99.90;;;;;;2095447;28;20038;-82
2023/05/17 00:27:23;;;;;;;5.03;2.90;;;8.00;99.90;;;;;;2092685;28;20040;-82
2023/05/17 00:28:23;;;;;;;6.38;2.95;;;8.00;99.90;;;;;;2083386;28;20056;-82
2023/05/17 00:29:24;;;;;;;6.30;3.10;;;8.00;99.90;;;;;;2087074;28;20025;-82
2023/05/17 00:30:25;;;;;;;4.65;2.80;;;8.00;99.90;;;;;;2087026;28;20040;-82
2023/05/17 00:31:26;;;;;;;5.28;2.80;;;8.00;99.90;;;;;;2102619;28;20038;-82
2023/05/17 00:32:26;;;;;;;5.40;2.92;;;8.00;99.90;;;;;;2097890;28;20580;-83
2023/05/17 00:33:27;;;;;;;4.82;2.90;;;8.00;99.90;;;;;;2096666;28;20032;-82
2023/05/17 00:34:28;;;;;;;7.60;2.88;;;8.00;99.90;;;;;;2094459;28;20032;-83
2023/05/17 00:35:29;;;;;;;4.72;2.78;;;8.00;99.90;;;;;;2105390;28;20035;-82
2023/05/17 00:36:30;;;;;;;4.22;2.85;;;7.90;99.90;;;;;;2094246;28;20127;-81
2023/05/17 00:37:30;;;;;;;4.95;2.90;;;7.90;99.90;;;;;;2091023;28;20029;-85
2023/05/17 00:38:31;;;;;;;5.32;2.67;;;7.90;99.90;;;;;;2090566;28;20110;-82
2023/05/17 00:39:31;;;;;;;4.90;2.90;;;7.90;99.90;;;;;;2100913;28;20107;-82
2023/05/17 00:40:32;;;;;;;5.47;2.70;;;7.80;99.90;;;;;;2098710;28;20521;-81
2023/05/17 00:41:33;;;;;;;7.38;2.75;;;7.80;99.90;;;;;;2090336;28;20442;-82
2023/05/17 00:42:33;;;;;;;5.80;2.70;;;7.80;99.90;;;;;;2085150;28;20025;-81
2023/05/17 00:43:34;;;;;;;6.20;2.72;;;7.80;99.90;;;;;;2079832;28;20024;-82
2023/05/17 00:44:35;;;;;;;5.10;2.90;;;7.80;99.90;;;;;;2073925;28;20033;-83
2023/05/17 00:45:35;;;;;;;8.07;2.65;;;7.80;99.90;;;;;;2082329;28;20049;-83
2023/05/17 00:46:36;;;;;;;6.93;2.80;;;7.80;99.90;;;;;;2098087;28;20082;-83
2023/05/17 00:47:36;;;;;;;5.13;2.40;;;7.80;99.90;;;;;;2093642;28;20032;-82
2023/05/17 00:48:37;;;;;;;4.65;2.60;;;7.70;99.90;;;;;;2083868;28;20074;-82
2023/05/17 00:49:39;;;;;;;4.90;2.65;;;7.80;99.90;;;;;;2092538;28;20044;-82
2023/05/17 00:50:40;;;;;;;5.40;2.60;;;7.80;99.90;;;;;;2090220;28;20067;-82
2023/05/17 00:51:42;;;;;;;5.43;2.50;;;7.70;99.90;;;;;;2090500;28;20021;-82
2023/05/17 00:52:45;;;;;;;6.93;2.80;;;7.70;99.90;;;;;;2107901;28;20246;-81
2023/05/17 00:53:46;;;;;;;4.65;2.60;;;7.70;99.90;;;;;;2100031;28;20050;-82
2023/05/17 00:54:48;;;;;;;6.22;2.90;;;7.70;99.90;;;;;;2085851;28;20028;-82
2023/05/17 00:55:49;;;;;;;4.60;2.70;;;7.70;99.90;;;;;;2090517;28;20033;-82
2023/05/17 00:56:50;;;;;;;7.82;2.83;;;7.70;99.90;;;;;;2105139;28;20063;-83
2023/05/17 00:57:51;;;;;;;6.22;2.70;;;7.70;99.90;;;;;;2100267;28;20457;-83
2023/05/17 00:58:52;;;;;;;5.15;2.65;;;7.70;99.90;;;;;;2098922;28;20030;-83
2023/05/17 00:59:54;;;;;;;6.60;3.25;;;7.70;99.90;;;;;;2099000;28;20123;-83
2023/05/17 01:00:55;;;;;;;6.93;2.80;;;7.70;99.90;;;;;;2081913;28;20522;-83
2023/05/17 01:01:56;;;;;;;6.28;2.70;;;7.80;99.90;;;;;;2090238;28;20028;-83
2023/05/17 01:02:57;;;;;;;7.53;2.75;;;7.70;99.90;;;;;;2096410;28;20548;-84
2023/05/17 01:03:58;;;;;;;5.25;2.70;;;7.70;99.90;;;;;;2090437;28;20040;-83
2023/05/17 01:04:59;;;;;;;6.45;3.05;;;7.70;99.90;;;;;;2088631;28;20020;-84
2023/05/17 01:06:00;;;;;;;3.67;2.47;;;7.70;99.90;;;;;;2107929;28;20028;-83
2023/05/17 01:07:01;;;;;;;5.20;2.63;;;7.70;99.90;;;;;;2092195;28;20566;-83
2023/05/17 01:08:02;;;;;;;5.80;3.08;;;7.70;99.90;;;;;;2089496;28;20159;-86
2023/05/17 01:09:04;;;;;;;5.35;2.70;;;7.70;99.90;;;;;;2095275;28;20036;-83
2023/05/17 01:10:07;;;;;;;5.38;2.90;;;7.70;99.90;;;;;;2103687;28;20410;-83
2023/05/17 01:11:23;;;;;;;5.55;2.80;;;7.70;99.90;;;;;;2087853;28;20203;-82
2023/05/17 01:12:40;;;;;;;5.97;2.80;;;7.60;99.90;;;;;;2095437;28;20064;-84
2023/05/17 01:13:59;;;;;;;7.47;2.80;;;7.60;99.90;;;;;;2097042;28;20098;-83
2023/05/17 01:15:15;;;;;;;5.82;3.13;;;7.70;99.90;;;;;;2094936;28;20029;-83
2023/05/17 01:16:29;;;;;;;5.93;3.33;;;7.60;99.90;;;;;;2084322;28;20025;-84
2023/05/17 01:17:50;;;;;;;7.13;2.88;;;7.60;99.90;;;;;;2090089;28;20032;-83
2023/05/17 01:19:08;;;;;;;5.38;2.70;;;7.60;99.90;;;;;;2091982;28;20052;-83
2023/05/17 01:20:27;;;;;;;6.05;2.88;;;7.60;99.90;;;;;;2086327;28;20071;-82
2023/05/17 01:21:38;;;;;;;6.50;2.60;;;7.60;99.90;;;;;;2085795;28;20246;-83
2023/05/17 01:22:52;;;;;;;6.47;2.65;;;7.50;99.90;;;;;;2095405;28;20495;-83
2023/05/17 01:24:21;;;;;;;4.45;2.38;;;7.50;99.90;;;;;;2107213;28;20028;-83
2023/05/17 01:26:03;;;;;;;5.43;2.47;;;7.50;99.90;;;;;;2105465;28;20481;-82
2023/05/17 01:27:05;;;;;;;6.32;2.50;;;7.50;99.90;;;;;;2089344;28;20406;-82
2023/05/17 01:28:08;;;;;;;4.28;2.70;;;7.50;99.90;;;;;;2107085;28;20046;-83
2023/05/17 01:29:10;;;;;;;8.10;3.00;;;7.40;99.90;;;;;;2095296;28;20448;-82
2023/05/17 01:30:13;;;;;;;5.20;2.58;;;7.40;99.90;;;;;;2093829;28;20570;-81
2023/05/17 01:31:15;;;;;;;5.20;2.80;;;7.40;99.90;;;;;;2097978;28;20047;-82
2023/05/17 01:32:16;;;;;;;4.30;2.40;;;7.40;99.90;;;;;;2089923;28;20056;-82
2023/05/17 01:33:19;;;;;;;7.07;2.35;;;7.40;99.90;;;;;;2090373;28;20608;-83
2023/05/17 01:34:27;;;;;;;6.00;2.50;;;7.40;99.90;;;;;;2100875;28;20430;-83
2023/05/17 01:35:27;;;;;;;8.20;2.90;;;7.40;99.90;;;;;;2092371;28;20486;-84
2023/05/17 01:36:28;;;;;;;5.55;2.55;;;7.40;99.90;;;;;;2090447;28;20028;-83
2023/05/17 01:37:29;;;;;;;5.10;2.50;;;7.40;99.90;;;;;;2107688;28;20457;-83
2023/05/17 01:38:29;;;;;;;5.45;2.97;;;7.40;99.90;;;;;;2096907;28;20054;-84
2023/05/17 01:39:30;;;;;;;5.68;2.90;;;7.40;99.90;;;;;;2102356;28;20043;-83
2023/05/17 01:40:34;;;;;;;4.47;2.53;;;7.40;99.90;;;;;;2112461;27;20031;-85
2023/05/17 01:41:45;;;;;;;4.60;2.33;;;7.40;99.90;;;;;;2109875;28;20568;-82
2023/05/17 01:42:52;;;;;;;5.32;2.60;;;7.40;99.90;;;;;;2101009;28;20077;-81
2023/05/17 01:44:19;;;;;;;5.22;2.50;;;7.40;99.90;;;;;;2100743;28;20494;-81
2023/05/17 01:45:34;;;;;;;3.38;2.50;;;7.40;99.90;;;;;;2103307;28;20035;-83
2023/05/17 01:46:39;;;;;;;7.18;2.67;;;7.40;99.90;;;;;;2109916;28;20044;-83
2023/05/17 01:47:59;;;;;;;5.00;2.30;;;7.40;99.90;;;;;;2100387;28;20020;-82
2023/05/17 01:49:22;;;;;;;7.38;2.63;;;7.40;99.90;;;;;;2085581;28;20032;-83
2023/05/17 01:50:25;;;;;;;6.28;2.55;;;7.50;99.90;;;;;;2096958;28;20422;-82
2023/05/17 01:51:32;;;;;;;4.82;2.70;;;7.50;99.90;;;;;;2097396;28;20068;-82
2023/05/17 01:52:43;;;;;;;6.43;2.85;;;7.50;99.90;;;;;;2098358;28;20019;-84
2023/05/17 01:53:54;;;;;;;5.88;2.80;;;7.50;99.90;;;;;;2094655;28;20056;-80
2023/05/17 01:55:12;;;;;;;4.95;2.28;;;7.50;99.90;;;;;;2092382;28;20483;-82
2023/05/17 01:56:25;;;;;;;5.78;2.33;;;7.50;99.90;;;;;;2096523;28;20028;-81
2023/05/17 01:57:31;;;;;;;3.47;2.40;;;7.50;99.90;;;;;;2093327;28;20075;-80
2023/05/17 01:58:42;;;;;;;4.82;2.55;;;7.50;99.90;;;;;;2092197;28;20041;-81
2023/05/17 01:59:44;;;;;;;6.85;2.50;;;7.50;99.90;;;;;;2093221;28;20028;-82
2023/05/17 02:00:47;;;;;;;6.07;2.75;;;7.50;99.90;;;;;;2099720;28;20089;-83
2023/05/17 02:01:50;;;;;;;5.47;2.53;;;7.50;99.90;;;;;;2101941;28;20114;-80
2023/05/17 02:02:50;;;;;;;5.00;2.50;;;7.50;99.90;;;;;;2099439;28;20043;-82
2023/05/17 02:03:51;;;;;;;5.18;2.80;;;7.50;99.90;;;;;;2100865;28;20028;-82
2023/05/17 02:04:51;;;;;;;8.02;2.55;;;7.50;99.90;;;;;;2092653;28;20409;-83
2023/05/17 02:05:52;;;;;;;7.82;2.63;;;7.50;99.90;;;;;;2088546;28;20021;-78
2023/05/17 02:06:52;;;;;;;4.57;2.65;;;7.40;99.90;;;;;;2093807;28;20037;-82
2023/05/17 02:07:53;;;;;;;5.97;2.50;;;7.50;99.90;;;;;;2091471;28;20074;-83
2023/05/17 02:08:53;;;;;;;5.68;2.55;;;7.50;99.90;;;;;;2093900;28;20032;-74
2023/05/17 02:09:54;;;;;;;4.07;2.50;;;7.40;99.90;;;;;;2108986;28;20494;-81
2023/05/17 02:10:55;;;;;;;6.32;2.72;;;7.50;99.90;;;;;;2102111;28;20031;-81
2023/05/17 02:11:56;;;;;;;7.07;2.80;;;7.50;99.90;;;;;;2094947;28;20040;-82
2023/05/17 02:12:57;;;;;;;6.55;2.80;;;7.40;99.90;;;;;;2103940;28;20109;-83
2023/05/17 02:13:57;;;;;;;8.55;2.80;;;7.40;99.90;;;;;;2100130;28;20114;-83
2023/05/17 02:14:58;;;;;;;5.55;2.63;;;7.40;99.90;;;;;;2093874;28;20111;-83
2023/05/17 02:16:02;;;;;;;5.93;2.80;;;7.40;99.90;;;;;;2098607;28;20032;-82
2023/05/17 02:17:04;;;;;;;7.20;2.92;;;7.40;99.90;;;;;;2110148;28;20028;-83
2023/05/17 02:18:05;;;;;;;3.85;2.58;;;7.40;99.90;;;;;;2099908;28;20111;-83
2023/05/17 02:19:07;;;;;;;4.80;2.70;;;7.40;99.90;;;;;;2098390;28;20034;-84
2023/05/17 02:20:09;;;;;;;5.63;2.85;;;7.40;99.90;;;;;;2108806;28;20278;-83
2023/05/17 02:21:11;;;;;;;8.27;3.03;;;7.40;99.90;;;;;;2101666;28;20035;-82
2023/05/17 02:22:12;;;;;;;8.23;3.08;;;7.40;99.90;;;;;;2089337;28;20079;-83
2023/05/17 02:23:13;;;;;;;7.25;2.80;;;7.40;99.90;;;;;;2099106;28;20020;-82
2023/05/17 02:24:14;;;;;;;7.10;2.75;;;7.40;99.90;;;;;;2101380;28;20047;-82
2023/05/17 02:25:14;;;;;;;5.32;2.70;;;7.30;99.90;;;;;;2096377;28;20120;-81
2023/05/17 02:26:15;;;;;;;7.40;3.17;;;7.40;99.90;;;;;;2110698;28;20103;-83
2023/05/17 02:27:15;;;;;;;7.40;2.90;;;7.40;99.90;;;;;;2098798;28;20031;-82
2023/05/17 02:28:16;;;;;;;6.78;2.80;;;7.30;99.90;;;;;;2091181;28;20388;-83
2023/05/17 02:29:16;;;;;;;4.55;2.60;;;7.40;99.90;;;;;;2087250;28;20049;-82
2023/05/17 02:30:17;;;;;;;5.78;2.80;;;7.30;99.90;;;;;;2099574;28;20074;-83
2023/05/17 02:31:18;;;;;;;4.43;2.75;;;7.30;99.90;;;;;;2109830;28;20418;-81
2023/05/17 02:32:18;;;;;;;7.35;3.45;;;7.30;99.90;;;;;;2096605;28;20024;-82
2023/05/17 02:33:20;;;;;;;8.00;3.47;;;7.30;99.90;;;;;;2094786;28;20400;-83
2023/05/17 02:34:20;;;;;;;7.28;3.17;;;7.30;99.90;;;;;;2099451;28;20115;-83
2023/05/17 02:35:23;;;;;;;6.53;2.97;;;7.30;99.90;;;;;;2091814;28;20025;-79
2023/05/17 02:36:24;;;;;;;6.88;3.50;;;7.20;99.90;;;;;;2101747;28;20021;-82
2023/05/17 02:37:25;;;;;;;7.45;3.17;;;7.30;99.90;;;;;;2107080;27;20046;-82
2023/05/17 02:38:25;;;;;;;4.75;3.33;;;7.20;99.90;;;;;;2097643;28;20511;-83
2023/05/17 02:39:26;;;;;;;7.97;3.33;;;7.20;99.90;;;;;;2088804;28;20080;-84
2023/05/17 02:40:27;;;;;;;6.43;3.28;;;7.20;99.90;;;;;;2097303;28;20028;-83
2023/05/17 02:41:28;;;;;;;7.43;3.15;;;7.20;99.90;;;;;;2101220;28;20032;-82
2023/05/17 02:42:28;;;;;;;8.60;3.20;;;7.20;99.90;;;;;;2092352;28;20031;-85
2023/05/17 02:43:29;;;;;;;6.25;3.17;;;7.20;99.90;;;;;;2098889;28;20083;-83
2023/05/17 02:44:30;;;;;;;6.40;3.05;;;7.20;99.90;;;;;;2091125;28;20102;-83
2023/05/17 02:45:31;;;;;;;8.95;3.65;;;7.10;99.90;;;;;;2093465;28;20618;-82
2023/05/17 02:46:31;;;;;;;5.88;3.25;;;7.20;99.90;;;;;;2099685;28;20124;-83
2023/05/17 02:47:32;;;;;;;6.97;3.42;;;7.20;99.90;;;;;;2090939;28;20469;-83
2023/05/17 02:48:32;;;;;;;7.63;3.22;;;7.20;99.90;;;;;;2090851;28;20040;-81
2023/05/17 02:49:33;;;;;;;7.85;3.42;;;7.20;99.90;;;;;;2098892;28;20107;-82
2023/05/17 02:50:34;;;;;;;6.63;3.45;;;7.20;99.90;;;;;;2092185;28;20040;-82
2023/05/17 02:51:34;;;;;;;7.45;3.30;;;7.20;99.90;;;;;;2095680;28;20025;-82
2023/05/17 02:52:35;;;;;;;10.43;3.85;;;7.10;99.90;;;;;;2099315;28;20454;-82
2023/05/17 02:53:36;;;;;;;9.82;3.60;;;7.10;99.90;;;;;;2083242;28;20061;-82
2023/05/17 02:54:37;;;;;;;7.93;3.60;;;7.10;99.90;;;;;;2076725;28;20060;-82
2023/05/17 02:55:37;;;;;;;8.95;3.60;;;7.00;99.90;;;;;;2082570;28;20543;-82
2023/05/17 02:56:38;;;;;;;8.82;3.88;;;7.00;99.90;;;;;;2099339;28;20024;-82
2023/05/17 02:57:39;;;;;;;7.13;3.50;;;7.00;99.90;;;;;;2098903;28;20032;-82
2023/05/17 02:58:40;;;;;;;7.90;3.85;;;7.00;99.90;;;;;;2098990;28;20150;-82
2023/05/17 02:59:41;;;;;;;6.53;3.50;;;7.00;99.90;;;;;;2100543;28;20052;-81
2023/05/17 03:00:45;;;;;;;9.18;3.63;;;7.00;99.90;;;;;;2090575;28;20024;-82
2023/05/17 03:01:46;;;;;;;7.70;3.60;;;6.90;99.90;;;;;;2086531;28;20053;-82
2023/05/17 03:02:47;;;;;;;7.43;3.50;;;6.90;99.90;;;;;;2090805;28;20780;-83
2023/05/17 03:03:47;;;;;;;6.95;3.70;;;6.90;99.90;;;;;;2093410;28;20088;-83
2023/05/17 03:04:48;;;;;;;8.20;3.40;;;6.90;99.90;;;;;;2099895;28;20024;-83
2023/05/17 03:05:49;;;;;;;6.57;3.40;;;6.90;99.90;;;;;;2091435;28;20084;-85
2023/05/17 03:06:50;;;;;;;7.65;3.30;;;6.90;99.90;;;;;;2091148;28;20116;-84
2023/05/17 03:07:52;;;;;;;7.35;3.30;;;6.90;99.90;;;;;;2092707;28;20028;-84
2023/05/17 03:08:53;;;;;;;6.85;3.35;;;6.90;99.90;;;;;;2087343;28;20365;-84
2023/05/17 03:09:54;;;;;;;7.63;3.60;;;6.90;99.90;;;;;;2084110;28;20021;-83
2023/05/17 03:10:55;;;;;;;11.10;3.53;;;6.90;99.90;;;;;;2088000;28;20205;-84
2023/05/17 03:11:55;;;;;;;6.93;3.55;;;6.90;99.90;;;;;;2092929;28;20029;-84
2023/05/17 03:13:01;;;;;;;6.32;3.67;;;6.90;99.90;;;;;;2092447;28;20041;-84
2023/05/17 03:14:06;;;;;;;7.97;3.78;;;6.90;99.90;;;;;;2081629;28;20039;-84
2023/05/17 03:15:07;;;;;;;6.57;3.40;;;6.90;99.90;;;;;;2083290;28;20039;-84
2023/05/17 03:16:08;;;;;;;9.85;3.75;;;6.90;99.90;;;;;;2097382;28;20060;-84
2023/05/17 03:17:09;;;;;;;8.95;3.83;;;6.90;99.90;;;;;;2099218;28;20016;-84
2023/05/17 03:18:09;;;;;;;8.70;3.83;;;6.90;99.90;;;;;;2100904;28;20595;-84
2023/05/17 03:19:12;;;;;;;7.20;3.42;;;6.90;99.90;;;;;;2090340;28;20051;-85
2023/05/17 03:20:14;;;;;;;8.75;3.70;;;6.90;99.90;;;;;;2089524;28;20040;-84
2023/05/17 03:21:15;;;;;;;7.35;3.60;;;6.90;99.90;;;;;;2090411;28;20032;-85
2023/05/17 03:22:15;;;;;;;6.20;3.70;;;6.80;99.90;;;;;;2088172;28;20029;-84
2023/05/17 03:23:17;;;;;;;10.13;3.70;;;6.90;99.90;;;;;;2098362;28;20403;-85
2023/05/17 03:24:26;;;;;;;9.07;3.72;;;6.90;99.90;;;;;;2097616;28;20050;-84
2023/05/17 03:25:26;;;;;;;7.88;3.78;;;6.80;99.90;;;;;;2099381;28;20058;-84
2023/05/17 03:26:27;;;;;;;10.15;3.85;;;6.80;99.90;;;;;;2108386;28;20031;-85
2023/05/17 03:27:29;;;;;;;8.07;3.45;;;6.80;99.90;;;;;;2108424;28;20031;-84
2023/05/17 03:28:30;;;;;;;7.85;3.70;;;6.80;99.90;;;;;;2101317;28;20169;-84
2023/05/17 03:29:31;;;;;;;9.13;3.80;;;6.80;99.90;;;;;;2082958;28;20029;-84
2023/05/17 03:30:32;;;;;;;6.93;3.80;;;6.80;99.90;;;;;;2082525;28;20025;-84
2023/05/17 03:31:33;;;;;;;8.13;3.95;;;6.80;99.90;;;;;;2090751;28;20033;-83
2023/05/17 03:32:34;;;;;;;10.88;4.22;;;6.90;99.90;;;;;;2093064;28;20044;-84
2023/05/17 03:33:34;;;;;;;9.45;3.63;;;6.80;99.90;;;;;;2089887;28;20924;-83
2023/05/17 03:34:36;;;;;;;10.48;4.28;;;6.80;99.90;;;;;;2095797;28;20028;-84
2023/05/17 03:35:36;;;;;;;10.88;3.70;;;6.80;99.90;;;;;;2099814;28;20071;-84
2023/05/17 03:36:41;;;;;;;8.75;3.92;;;6.80;99.90;;;;;;2099316;28;20062;-83
2023/05/17 03:37:42;;;;;;;10.43;3.90;;;6.80;99.90;;;;;;2099725;28;20050;-83
2023/05/17 03:38:42;;;;;;;9.30;4.07;;;6.80;99.90;;;;;;2097418;28;20020;-85
2023/05/17 03:39:43;;;;;;;8.85;4.15;;;6.80;99.90;;;;;;2096470;28;20411;-85
2023/05/17 03:40:44;;;;;;;7.95;3.75;;;6.80;99.90;;;;;;2089381;28;20036;-85
2023/05/17 03:41:45;;;;;;;11.85;4.20;;;6.80;99.90;;;;;;2097156;28;20423;-85
2023/05/17 03:42:46;;;;;;;9.90;4.53;;;6.80;99.90;;;;;;2098778;28;20101;-86
2023/05/17 03:43:47;;;;;;;11.07;4.10;;;6.80;99.90;;;;;;2085938;28;20120;-84
2023/05/17 03:44:49;;;;;;;8.60;4.18;;;6.80;99.90;;;;;;2083354;28;20163;-85
2023/05/17 03:45:50;;;;;;;10.23;4.40;;;6.80;99.90;;;;;;2090509;28;20036;-84
2023/05/17 03:46:51;;;;;;;12.07;4.50;;;6.80;99.90;;;;;;2099033;28;20221;-81
2023/05/17 03:47:53;;;;;;;11.88;4.32;;;6.80;99.90;;;;;;2096365;28;20028;-83
2023/05/17 03:48:53;;;;;;;9.25;4.25;;;6.80;99.90;;;;;;2088319;28;20024;-84
2023/05/17 03:49:55;;;;;;;11.05;4.47;;;6.80;99.90;;;;;;2089700;28;20083;-83
2023/05/17 03:50:57;;;;;;;10.23;4.30;;;6.90;99.90;;;;;;2091071;28;20487;-83
2023/05/17 03:51:57;;;;;;;8.05;4.25;;;6.90;99.90;;;;;;2087893;28;20112;-85
2023/05/17 03:52:58;;;;;;;12.10;4.20;;;6.90;99.90;;;;;;2100493;28;20022;-84
2023/05/17 03:54:00;;;;;;;12.05;4.50;;;7.00;99.90;;;;;;2110973;27;20126;-85
2023/05/17 03:55:02;;;;;;;7.63;3.70;;;7.00;99.90;;;;;;2099881;28;20032;-83
2023/05/17 03:56:04;;;;;;;11.05;4.05;;;7.00;99.90;;;;;;2093282;28;20024;-85
2023/05/17 03:57:05;;;;;;;9.65;4.40;;;7.00;99.90;;;;;;2091571;28;20115;-82
2023/05/17 03:58:06;;;;;;;10.07;4.43;;;7.10;99.90;;;;;;2091189;28;20045;-82
2023/05/17 03:59:06;;;;;;;8.55;4.40;;;7.10;99.90;;;;;;2099254;28;20505;-83
2023/05/17 04:00:11;;;;;;;9.80;4.28;;;7.10;99.90;;;;;;2095551;28;20466;-82
2023/05/17 04:01:16;;;;;;;11.07;4.60;;;7.10;99.90;;;;;;2109985;28;20039;-82
2023/05/17 04:02:16;;;;;;;14.10;4.53;;;7.10;99.90;;;;;;2098803;28;20563;-84
2023/05/17 04:03:17;;;;;;;14.45;4.60;;;7.10;99.90;;;;;;2092042;28;20036;-84
2023/05/17 04:04:18;;;;;;;12.90;4.68;;;7.20;99.90;;;;;;2095744;28;20557;-83
2023/05/17 04:05:18;;;;;;;9.95;4.22;;;7.20;99.90;;;;;;2099205;28;20092;-82
2023/05/17 04:06:21;;;;;;;10.13;4.60;;;7.20;99.90;;;;;;2093723;28;20047;-82
2023/05/17 04:07:22;;;;;;;9.80;4.20;;;7.20;99.90;;;;;;2095673;28;20083;-85
2023/05/17 04:08:22;;;;;;;11.40;4.90;;;7.30;99.90;;;;;;2097659;28;20467;-84
2023/05/17 04:09:23;;;;;;;10.27;4.38;;;7.30;99.90;;;;;;2098667;28;20103;-83
2023/05/17 04:10:24;;;;;;;11.80;4.50;;;7.30;99.90;;;;;;2107748;28;20568;-82
2023/05/17 04:11:26;;;;;;;12.02;4.88;;;7.30;99.90;;;;;;2099356;28;20036;-81
2023/05/17 04:12:27;;;;;;;9.55;4.38;;;7.30;99.90;;;;;;2088114;28;20032;-82
2023/05/17 04:13:27;;;;;;;8.13;3.88;;;7.40;99.90;;;;;;2091431;28;20467;-85
2023/05/17 04:14:28;;;;;;;10.15;3.92;;;7.40;99.90;;;;;;2086363;28;20551;-86
2023/05/17 04:15:29;;;;;;;12.35;4.38;;;7.50;99.90;;;;;;2082342;28;20550;-83
2023/05/17 04:16:30;;;;;;;9.23;4.22;;;7.50;99.90;;;;;;2075823;28;20120;-85
2023/05/17 04:17:31;;;;;;;7.65;4.00;;;7.60;99.90;;;;;;2082375;28;20016;-84
2023/05/17 04:18:35;;;;;;;11.05;4.20;;;7.70;99.90;;;;;;2090457;28;20630;-83
2023/05/17 04:19:36;;;;;;;8.48;4.10;;;7.80;99.90;;;;;;2096455;28;20042;-84
2023/05/17 04:20:37;;;;;;;7.75;4.22;;;7.90;99.90;;;;;;2095761;28;20502;-75
2023/05/17 04:21:37;;;;;;;12.60;4.10;;;7.90;99.90;;;;;;2098109;28;20028;-77
2023/05/17 04:22:38;;;;;;;11.85;4.20;;;8.00;99.90;;;;;;2090287;28;20074;-78
2023/05/17 04:23:39;;;;;;;8.98;4.03;;;8.10;99.90;;;;;;2089888;28;20033;-76
2023/05/17 04:24:40;;;;;;;8.07;3.80;;;8.10;99.90;;;;;;2096183;28;20035;-76
2023/05/17 04:25:41;;;;;;;14.32;4.38;;;8.10;99.90;;;;;;2089612;28;20032;-77
2023/05/17 04:26:41;;;;;;;10.50;4.25;;;8.10;99.90;;;;;;2087757;28;20431;-76
2023/05/17 04:27:42;;;;;;;9.70;4.10;;;8.20;99.90;;;;;;2089903;28;20648;-78
2023/05/17 04:28:44;;;;;;;9.27;4.28;;;8.20;99.90;;;;;;2098270;28;20032;-77
2023/05/17 04:29:45;;;;;;;8.88;4.13;;;8.30;99.90;;;;;;2097904;28;20024;-79
2023/05/17 04:30:46;;;;;;;12.00;4.63;;;8.40;99.90;;;;;;2094432;28;20035;-77
2023/05/17 04:31:48;;;;;;;10.65;4.03;;;8.50;99.90;;;;;;2098357;28;20528;-78
2023/05/17 04:32:49;;;;;;;9.55;3.97;;;8.50;99.90;;;;;;2094078;28;20042;-79
2023/05/17 04:33:50;;;;;;;13.23;4.40;;;8.60;99.90;;;;;;2097602;28;20509;-78
2023/05/17 04:34:51;;;;;;;9.73;3.83;;;8.80;99.90;;;;;;2089946;28;20035;-78
2023/05/17 04:35:56;;;;;;;11.00;4.43;;;8.80;99.90;;;;;;2075559;28;20033;-76
2023/05/17 04:36:57;;;;;;;10.10;4.28;;;8.90;99.90;;;;;;2076004;28;20334;-79
2023/05/17 04:37:59;;;;;;;13.00;4.63;;;9.00;99.90;;;;;;2080969;28;20029;-77
2023/05/17 04:38:59;;;;;;;12.70;4.10;;;9.20;99.90;;;;;;2097970;28;20027;-78
2023/05/17 04:40:03;;;;;;;13.07;3.90;;;9.20;99.90;;;;;;2090025;28;20020;-78
2023/05/17 04:41:06;;;;;;;10.05;4.40;;;9.40;99.90;;;;;;2083494;28;20442;-79
2023/05/17 04:42:09;;;;;;;12.52;4.72;;;9.50;99.90;;;;;;2084144;28;20115;-78
2023/05/17 04:43:15;;;;;;;9.73;4.20;;;9.70;99.90;;;;;;2080884;28;20143;-77
2023/05/17 04:44:16;;;;;;;10.55;3.90;;;10.00;99.90;;;;;;2095254;28;20028;-77
2023/05/17 04:45:17;;;;;;;7.90;4.00;;;10.20;99.90;;;;;;2089583;28;20116;-78
2023/05/17 04:46:17;;;;;;;12.25;4.35;;;10.50;99.90;;;;;;2089753;28;20028;-78
2023/05/17 04:47:18;;;;;;;14.40;4.03;;;10.80;99.90;;;;;;2090117;28;20126;-78
2023/05/17 04:48:19;;;;;;;10.07;4.20;;;11.10;99.90;;;;;;2089752;28;20032;-79
2023/05/17 04:49:20;;;;;;;10.77;3.92;;;11.30;99.90;;;;;;2100180;28;20479;-79
2023/05/17 04:50:20;;;;;;;12.90;3.83;;;11.60;99.90;;;;;;2103208;28;20115;-79
2023/05/17 04:51:21;;;;;;;12.45;4.07;;;11.90;99.90;;;;;;2089833;28;20067;-79
2023/05/17 04:52:21;;;;;;;9.48;3.70;;;11.80;99.90;;;;;;2098079;28;20024;-78
2023/05/17 04:53:23;;;;;;;8.15;3.60;;;11.70;99.90;;;;;;2099995;28;20035;-78
2023/05/17 04:54:25;;;;;;;11.02;4.13;;;11.80;99.90;;;;;;2081256;28;20112;-78
2023/05/17 04:55:25;;;;;;;9.48;4.03;;;11.80;99.90;;;;;;2085772;28;20928;-78
2023/05/17 04:56:28;;;;;;;8.77;3.60;;;11.60;99.90;;;;;;2089571;28;20123;-78
2023/05/17 04:57:29;;;;;;;10.95;4.07;;;11.60;99.90;;;;;;2097955;28;20550;-78
2023/05/17 04:58:35;;;;;;;9.93;4.10;;;11.70;99.90;;;;;;2082059;28;20115;-77
2023/05/17 04:59:37;;;;;;;9.20;4.00;;;11.70;99.90;;;;;;2079638;28;20065;-78
2023/05/17 05:00:38;;;;;;;11.50;4.13;;;11.60;99.90;;;;;;2076632;28;20171;-78
2023/05/17 05:01:40;;;;;;;10.18;4.18;;;11.60;99.90;;;;;;2089830;28;20052;-76
2023/05/17 05:02:41;;;;;;;11.32;4.10;;;11.60;99.90;;;;;;2089575;28;20024;-77
2023/05/17 05:03:43;;;;;;;11.52;4.05;;;11.60;99.90;;;;;;2097853;28;20070;-78
2023/05/17 05:04:45;;;;;;;13.88;4.43;;;11.70;99.90;;;;;;2091293;28;20024;-77
2023/05/17 05:05:47;;;;;;;10.55;4.40;;;11.90;99.90;;;;;;2095186;28;20028;-78
2023/05/17 05:06:49;;;;;;;10.13;4.10;;;11.80;99.90;;;;;;2084881;28;20455;-79
2023/05/17 05:07:51;;;;;;;11.38;4.38;;;11.80;99.90;;;;;;2089242;28;20029;-79
2023/05/17 05:08:52;;;;;;;8.63;4.30;;;11.80;99.90;;;;;;2089309;28;20120;-79
2023/05/17 05:09:53;;;;;;;11.65;3.95;;;11.90;99.90;;;;;;2083766;28;20233;-79
2023/05/17 05:10:56;;;;;;;12.23;4.10;;;12.10;99.90;;;;;;2090098;28;20035;-77
2023/05/17 05:11:58;;;;;;;13.40;4.25;;;12.30;99.90;;;;;;2080501;28;20026;-78
2023/05/17 05:12:59;;;;;;;10.98;3.80;;;12.60;99.90;;;;;;2089239;28;20020;-78
2023/05/17 05:13:59;;;;;;;7.88;4.20;;;12.70;99.90;;;;;;2097349;28;20032;-78
2023/05/17 05:15:00;;;;;;;8.50;3.97;;;12.90;99.90;;;;;;2100789;28;20104;-79
2023/05/17 05:16:01;;;;;;;7.15;3.72;;;12.90;99.90;;;;;;2100392;28;20051;-79
2023/05/17 05:17:02;;;;;;;10.68;4.00;;;13.00;99.90;;;;;;2082891;28;20054;-77
2023/05/17 05:18:03;;;;;;;12.13;4.10;;;13.10;99.90;;;;;;2083042;28;20159;-78
2023/05/17 05:19:04;;;;;;;10.23;3.83;;;13.10;99.90;;;;;;2091122;28;20032;-77
2023/05/17 05:20:05;;;;;;;7.72;4.20;;;13.00;99.90;;;;;;2101730;28;20087;-78
2023/05/17 05:21:06;;;;;;;8.52;4.20;;;13.00;99.90;;;;;;2090815;28;20036;-78
2023/05/17 05:22:07;;;;;;;10.18;4.05;;;13.00;99.90;;;;;;2097849;28;20024;-78
2023/05/17 05:23:09;;;;;;;11.48;4.53;;;13.00;99.90;;;;;;2088165;28;20013;-78
2023/05/17 05:24:12;;;;;;;10.27;4.50;;;12.90;99.90;;;;;;2087938;28;20036;-78
2023/05/17 05:25:12;;;;;;;10.15;4.57;;;12.80;99.90;;;;;;2097269;28;20032;-78
2023/05/17 05:26:13;;;;;;;9.27;4.13;;;12.60;99.90;;;;;;2099530;28;20020;-77
2023/05/17 05:27:13;;;;;;;9.95;4.50;;;12.60;99.90;;;;;;2098194;28;20110;-78